sensor_id;sensor_type;location;lat;lon;timestamp;pressure;altitude;pressure_sealevel;temperature;humidity
35848;BME280;22332;51.954;20.118;2023-01-09T00:00:50;99212.80;;;4.70;86.09
35848;BME280;22332;51.954;20.118;2023-01-09T00:04:02;99212.09;;;4.69;85.93
35848;BME280;22332;51.954;20.118;2023-01-09T00:07:07;99218.77;;;4.68;85.93
35848;BME280;22332;51.954;20.118;2023-01-09T00:10:13;99219.48;;;4.62;86.21
35848;BME280;22332;51.954;20.118;2023-01-09T00:13:19;99221.27;;;4.62;86.23
35848;BME280;22332;51.954;20.118;2023-01-09T00:16:24;99214.64;;;4.65;86.22
35848;BME280;22332;51.954;20.118;2023-01-09T00:19:30;99210.63;;;4.70;86.24
35848;BME280;22332;51.954;20.118;2023-01-09T00:22:36;99214.14;;;4.72;86.10
35848;BME280;22332;51.954;20.118;2023-01-09T00:25:41;99211.02;;;4.74;86.27
35848;BME280;22332;51.954;20.118;2023-01-09T00:28:49;99206.16;;;4.73;86.12
35848;BME280;22332;51.954;20.118;2023-01-09T00:31:55;99199.09;;;4.71;86.22
35848;BME280;22332;51.954;20.118;2023-01-09T00:35:00;99192.77;;;4.71;86.16
35848;BME280;22332;51.954;20.118;2023-01-09T00:38:06;99188.52;;;4.69;86.21
35848;BME280;22332;51.954;20.118;2023-01-09T00:41:13;99191.05;;;4.70;86.31
35848;BME280;22332;51.954;20.118;2023-01-09T00:44:23;99187.95;;;4.74;86.18
35848;BME280;22332;51.954;20.118;2023-01-09T00:47:34;99186.80;;;4.75;86.27
35848;BME280;22332;51.954;20.118;2023-01-09T00:50:41;99184.64;;;4.75;86.15
35848;BME280;22332;51.954;20.118;2023-01-09T00:53:48;99179.98;;;4.74;86.08
35848;BME280;22332;51.954;20.118;2023-01-09T00:56:55;99176.25;;;4.69;86.22
35848;BME280;22332;51.954;20.118;2023-01-09T01:00:02;99173.77;;;4.67;86.22
35848;BME280;22332;51.954;20.118;2023-01-09T01:03:08;99174.45;;;4.67;86.25
35848;BME280;22332;51.954;20.118;2023-01-09T01:06:13;99174.02;;;4.70;86.41
35848;BME280;22332;51.954;20.118;2023-01-09T01:09:36;99171.38;;;4.70;86.27
35848;BME280;22332;51.954;20.118;2023-01-09T01:12:43;99173.54;;;4.69;86.16
35848;BME280;22332;51.954;20.118;2023-01-09T01:15:48;99175.60;;;4.70;86.40
35848;BME280;22332;51.954;20.118;2023-01-09T01:18:54;99173.52;;;4.69;86.48
35848;BME280;22332;51.954;20.118;2023-01-09T01:22:00;99166.59;;;4.68;86.39
35848;BME280;22332;51.954;20.118;2023-01-09T01:25:06;99167.66;;;4.68;86.30
35848;BME280;22332;51.954;20.118;2023-01-09T01:28:11;99161.98;;;4.71;86.45
35848;BME280;22332;51.954;20.118;2023-01-09T01:31:18;99154.59;;;4.75;86.33
35848;BME280;22332;51.954;20.118;2023-01-09T01:34:24;99151.66;;;4.79;86.27
35848;BME280;22332;51.954;20.118;2023-01-09T01:37:30;99147.88;;;4.82;86.50
35848;BME280;22332;51.954;20.118;2023-01-09T01:40:36;99149.45;;;4.84;86.28
35848;BME280;22332;51.954;20.118;2023-01-09T01:43:55;99145.71;;;4.85;86.30
35848;BME280;22332;51.954;20.118;2023-01-09T01:47:01;99138.33;;;4.82;86.20
35848;BME280;22332;51.954;20.118;2023-01-09T01:50:12;99135.09;;;4.78;86.32
35848;BME280;22332;51.954;20.118;2023-01-09T01:53:22;99129.25;;;4.76;86.42
35848;BME280;22332;51.954;20.118;2023-01-09T01:56:31;99128.90;;;4.80;86.45
35848;BME280;22332;51.954;20.118;2023-01-09T01:59:41;99128.48;;;4.82;86.18
35848;BME280;22332;51.954;20.118;2023-01-09T02:02:53;99119.85;;;4.84;86.35
35848;BME280;22332;51.954;20.118;2023-01-09T02:05:59;99114.33;;;4.83;86.37
35848;BME280;22332;51.954;20.118;2023-01-09T02:09:05;99111.02;;;4.81;86.24
35848;BME280;22332;51.954;20.118;2023-01-09T02:12:19;99111.41;;;4.78;86.35
35848;BME280;22332;51.954;20.118;2023-01-09T02:15:29;99112.02;;;4.76;86.40
35848;BME280;22332;51.954;20.118;2023-01-09T02:18:47;99108.16;;;4.78;86.32
35848;BME280;22332;51.954;20.118;2023-01-09T02:22:04;99107.36;;;4.82;86.54
35848;BME280;22332;51.954;20.118;2023-01-09T02:29:13;99108.29;;;4.89;86.46
35848;BME280;22332;51.954;20.118;2023-01-09T02:32:35;99112.36;;;4.92;86.28
35848;BME280;22332;51.954;20.118;2023-01-09T02:35:52;99110.91;;;4.91;86.28
35848;BME280;22332;51.954;20.118;2023-01-09T02:39:17;99106.70;;;4.89;86.25
35848;BME280;22332;51.954;20.118;2023-01-09T02:42:26;99102.42;;;4.88;86.30
35848;BME280;22332;51.954;20.118;2023-01-09T02:45:31;99097.17;;;4.91;86.60
35848;BME280;22332;51.954;20.118;2023-01-09T02:48:37;99090.05;;;4.97;86.65
35848;BME280;22332;51.954;20.118;2023-01-09T02:51:51;99082.43;;;5.03;86.44
35848;BME280;22332;51.954;20.118;2023-01-09T02:55:04;99078.54;;;5.05;86.18
35848;BME280;22332;51.954;20.118;2023-01-09T02:58:18;99073.73;;;5.08;86.19
35848;BME280;22332;51.954;20.118;2023-01-09T03:01:32;99074.96;;;5.06;86.23
35848;BME280;22332;51.954;20.118;2023-01-09T03:04:47;99069.02;;;5.04;86.32
35848;BME280;22332;51.954;20.118;2023-01-09T03:08:00;99060.98;;;5.01;86.31
35848;BME280;22332;51.954;20.118;2023-01-09T03:11:07;99060.97;;;4.99;86.30
35848;BME280;22332;51.954;20.118;2023-01-09T03:14:17;99052.70;;;4.99;86.35
35848;BME280;22332;51.954;20.118;2023-01-09T03:17:26;99051.27;;;5.03;86.64
35848;BME280;22332;51.954;20.118;2023-01-09T03:20:34;99060.69;;;5.06;86.54
35848;BME280;22332;51.954;20.118;2023-01-09T03:23:48;99048.60;;;5.09;86.44
35848;BME280;22332;51.954;20.118;2023-01-09T03:26:54;99037.87;;;5.10;86.27
35848;BME280;22332;51.954;20.118;2023-01-09T03:30:00;99034.56;;;5.10;86.33
35848;BME280;22332;51.954;20.118;2023-01-09T03:33:05;99031.09;;;5.08;86.49
35848;BME280;22332;51.954;20.118;2023-01-09T03:36:13;99026.69;;;5.06;86.51
35848;BME280;22332;51.954;20.118;2023-01-09T03:39:18;99025.45;;;5.06;86.52
35848;BME280;22332;51.954;20.118;2023-01-09T03:42:24;99026.23;;;5.10;86.46
35848;BME280;22332;51.954;20.118;2023-01-09T03:45:30;99019.02;;;5.14;86.65
35848;BME280;22332;51.954;20.118;2023-01-09T03:48:35;99021.40;;;5.13;86.42
35848;BME280;22332;51.954;20.118;2023-01-09T03:51:41;99023.27;;;5.14;86.40
35848;BME280;22332;51.954;20.118;2023-01-09T03:54:46;99022.85;;;5.13;86.25
35848;BME280;22332;51.954;20.118;2023-01-09T03:57:52;99020.63;;;5.08;86.19
35848;BME280;22332;51.954;20.118;2023-01-09T04:01:00;99018.09;;;5.04;86.37
35848;BME280;22332;51.954;20.118;2023-01-09T04:04:07;99012.27;;;5.02;86.52
35848;BME280;22332;51.954;20.118;2023-01-09T04:07:12;99017.63;;;5.03;86.63
35848;BME280;22332;51.954;20.118;2023-01-09T04:10:18;99020.50;;;5.06;86.55
35848;BME280;22332;51.954;20.118;2023-01-09T04:13:24;99018.73;;;5.08;86.34
35848;BME280;22332;51.954;20.118;2023-01-09T04:16:29;99014.52;;;5.06;86.43
35848;BME280;22332;51.954;20.118;2023-01-09T04:19:35;99017.73;;;5.04;86.45
35848;BME280;22332;51.954;20.118;2023-01-09T04:22:40;99013.41;;;4.99;86.32
35848;BME280;22332;51.954;20.118;2023-01-09T04:25:46;99009.10;;;4.94;86.43
35848;BME280;22332;51.954;20.118;2023-01-09T04:28:52;99009.96;;;4.89;86.55
35848;BME280;22332;51.954;20.118;2023-01-09T04:31:57;99004.02;;;4.87;86.63
35848;BME280;22332;51.954;20.118;2023-01-09T04:35:03;99003.08;;;4.86;86.67
35848;BME280;22332;51.954;20.118;2023-01-09T04:38:09;99000.96;;;4.86;86.63
35848;BME280;22332;51.954;20.118;2023-01-09T04:41:15;98999.10;;;4.85;86.76
35848;BME280;22332;51.954;20.118;2023-01-09T04:44:40;98992.71;;;4.83;86.49
35848;BME280;22332;51.954;20.118;2023-01-09T04:47:46;98992.43;;;4.79;86.45
35848;BME280;22332;51.954;20.118;2023-01-09T04:50:52;98994.58;;;4.71;86.45
35848;BME280;22332;51.954;20.118;2023-01-09T04:53:57;98995.73;;;4.66;86.47
35848;BME280;22332;51.954;20.118;2023-01-09T04:57:03;98997.23;;;4.64;86.70
35848;BME280;22332;51.954;20.118;2023-01-09T05:00:10;98994.77;;;4.64;86.50
35848;BME280;22332;51.954;20.118;2023-01-09T05:03:16;98991.43;;;4.64;86.62
35848;BME280;22332;51.954;20.118;2023-01-09T05:06:21;98981.63;;;4.59;86.50
35848;BME280;22332;51.954;20.118;2023-01-09T05:09:27;98980.54;;;4.56;86.64
35848;BME280;22332;51.954;20.118;2023-01-09T05:12:33;98981.11;;;4.52;86.58
35848;BME280;22332;51.954;20.118;2023-01-09T05:15:39;98975.34;;;4.46;86.63
35848;BME280;22332;51.954;20.118;2023-01-09T05:18:45;98971.81;;;4.40;86.76
35848;BME280;22332;51.954;20.118;2023-01-09T05:21:50;98965.80;;;4.39;86.87
35848;BME280;22332;51.954;20.118;2023-01-09T05:24:56;98963.49;;;4.39;86.77
35848;BME280;22332;51.954;20.118;2023-01-09T05:28:01;98962.89;;;4.38;86.79
35848;BME280;22332;51.954;20.118;2023-01-09T05:31:07;98961.04;;;4.37;86.69
35848;BME280;22332;51.954;20.118;2023-01-09T05:34:13;98958.13;;;4.34;86.71
35848;BME280;22332;51.954;20.118;2023-01-09T05:37:18;98949.80;;;4.29;86.88
35848;BME280;22332;51.954;20.118;2023-01-09T05:40:24;98950.77;;;4.26;86.88
35848;BME280;22332;51.954;20.118;2023-01-09T05:43:29;98951.94;;;4.23;86.85
35848;BME280;22332;51.954;20.118;2023-01-09T05:46:35;98952.92;;;4.22;86.90
35848;BME280;22332;51.954;20.118;2023-01-09T05:49:41;98950.25;;;4.22;86.95
35848;BME280;22332;51.954;20.118;2023-01-09T05:52:46;98946.41;;;4.22;86.90
35848;BME280;22332;51.954;20.118;2023-01-09T05:55:51;98945.24;;;4.21;86.98
35848;BME280;22332;51.954;20.118;2023-01-09T05:58:57;98942.88;;;4.19;87.00
35848;BME280;22332;51.954;20.118;2023-01-09T06:02:03;98944.86;;;4.14;87.02
35848;BME280;22332;51.954;20.118;2023-01-09T06:05:09;98949.06;;;4.10;87.15
35848;BME280;22332;51.954;20.118;2023-01-09T06:08:15;98951.91;;;4.06;87.16
35848;BME280;22332;51.954;20.118;2023-01-09T06:11:20;98939.35;;;4.05;87.16
35848;BME280;22332;51.954;20.118;2023-01-09T06:14:26;98935.30;;;4.07;87.13
35848;BME280;22332;51.954;20.118;2023-01-09T06:17:31;98927.55;;;4.11;87.35
35848;BME280;22332;51.954;20.118;2023-01-09T06:20:37;98916.11;;;4.13;87.30
35848;BME280;22332;51.954;20.118;2023-01-09T06:23:43;98911.19;;;4.13;87.31
35848;BME280;22332;51.954;20.118;2023-01-09T06:26:48;98909.30;;;4.10;87.18
35848;BME280;22332;51.954;20.118;2023-01-09T06:29:54;98907.92;;;4.06;87.26
35848;BME280;22332;51.954;20.118;2023-01-09T06:33:00;98908.61;;;4.03;87.24
35848;BME280;22332;51.954;20.118;2023-01-09T06:36:08;98910.39;;;4.01;87.48
35848;BME280;22332;51.954;20.118;2023-01-09T06:39:13;98911.33;;;4.02;87.53
35848;BME280;22332;51.954;20.118;2023-01-09T06:42:19;98914.24;;;4.05;87.61
35848;BME280;22332;51.954;20.118;2023-01-09T06:45:25;98910.85;;;4.05;87.43
35848;BME280;22332;51.954;20.118;2023-01-09T06:48:30;98910.63;;;4.06;87.37
35848;BME280;22332;51.954;20.118;2023-01-09T06:51:36;98907.23;;;4.06;87.51
35848;BME280;22332;51.954;20.118;2023-01-09T06:54:42;98909.83;;;4.05;87.27
35848;BME280;22332;51.954;20.118;2023-01-09T06:57:47;98911.49;;;4.04;87.50
35848;BME280;22332;51.954;20.118;2023-01-09T07:00:53;98912.52;;;4.04;87.48
35848;BME280;22332;51.954;20.118;2023-01-09T07:03:59;98913.23;;;4.08;87.55
35848;BME280;22332;51.954;20.118;2023-01-09T07:07:04;98912.30;;;4.12;87.49
35848;BME280;22332;51.954;20.118;2023-01-09T07:10:11;98913.64;;;4.15;87.49
35848;BME280;22332;51.954;20.118;2023-01-09T07:13:18;98912.75;;;4.15;87.46
35848;BME280;22332;51.954;20.118;2023-01-09T07:16:35;98909.13;;;4.16;87.62
35848;BME280;22332;51.954;20.118;2023-01-09T07:19:47;98904.64;;;4.17;87.63
35848;BME280;22332;51.954;20.118;2023-01-09T07:22:55;98896.35;;;4.19;87.69
35848;BME280;22332;51.954;20.118;2023-01-09T07:26:01;98898.02;;;4.23;87.68
35848;BME280;22332;51.954;20.118;2023-01-09T07:29:07;98897.86;;;4.29;87.74
35848;BME280;22332;51.954;20.118;2023-01-09T07:32:12;98893.58;;;4.35;87.72
35848;BME280;22332;51.954;20.118;2023-01-09T07:35:18;98897.48;;;4.42;87.60
35848;BME280;22332;51.954;20.118;2023-01-09T07:38:24;98895.00;;;4.48;87.58
35848;BME280;22332;51.954;20.118;2023-01-09T07:41:29;98890.27;;;4.51;87.65
35848;BME280;22332;51.954;20.118;2023-01-09T07:44:35;98890.59;;;4.53;87.75
35848;BME280;22332;51.954;20.118;2023-01-09T07:47:41;98886.90;;;4.55;87.73
35848;BME280;22332;51.954;20.118;2023-01-09T07:50:46;98884.43;;;4.59;87.82
35848;BME280;22332;51.954;20.118;2023-01-09T07:53:52;98886.58;;;4.64;87.76
35848;BME280;22332;51.954;20.118;2023-01-09T07:56:58;98887.97;;;4.72;87.89
35848;BME280;22332;51.954;20.118;2023-01-09T08:00:05;98880.17;;;4.78;87.75
35848;BME280;22332;51.954;20.118;2023-01-09T08:03:17;98885.97;;;4.83;87.75
35848;BME280;22332;51.954;20.118;2023-01-09T08:06:23;98880.98;;;4.85;87.76
35848;BME280;22332;51.954;20.118;2023-01-09T08:09:29;98878.46;;;4.88;87.75
35848;BME280;22332;51.954;20.118;2023-01-09T08:12:34;98876.73;;;4.93;87.99
35848;BME280;22332;51.954;20.118;2023-01-09T08:15:40;98872.08;;;4.99;87.89
35848;BME280;22332;51.954;20.118;2023-01-09T08:18:50;98872.25;;;5.06;88.01
35848;BME280;22332;51.954;20.118;2023-01-09T08:21:55;98872.17;;;5.16;87.91
35848;BME280;22332;51.954;20.118;2023-01-09T08:25:01;98865.33;;;5.25;87.85
35848;BME280;22332;51.954;20.118;2023-01-09T08:28:06;98859.08;;;5.30;87.70
35848;BME280;22332;51.954;20.118;2023-01-09T08:31:13;98850.07;;;5.36;87.76
35848;BME280;22332;51.954;20.118;2023-01-09T08:34:18;98845.52;;;5.39;87.62
35848;BME280;22332;51.954;20.118;2023-01-09T08:37:24;98846.85;;;5.43;87.68
35848;BME280;22332;51.954;20.118;2023-01-09T08:40:30;98847.16;;;5.45;87.67
35848;BME280;22332;51.954;20.118;2023-01-09T08:43:35;98843.55;;;5.54;87.74
35848;BME280;22332;51.954;20.118;2023-01-09T08:46:58;98841.67;;;5.61;87.93
35848;BME280;22332;51.954;20.118;2023-01-09T08:50:10;98846.05;;;5.69;87.82
35848;BME280;22332;51.954;20.118;2023-01-09T08:53:16;98849.82;;;5.74;87.66
35848;BME280;22332;51.954;20.118;2023-01-09T08:56:22;98847.95;;;5.78;87.70
35848;BME280;22332;51.954;20.118;2023-01-09T08:59:27;98850.52;;;5.80;87.69
35848;BME280;22332;51.954;20.118;2023-01-09T09:02:33;98853.48;;;5.82;87.63
35848;BME280;22332;51.954;20.118;2023-01-09T09:05:39;98846.09;;;5.84;87.68
35848;BME280;22332;51.954;20.118;2023-01-09T09:08:44;98851.99;;;5.90;87.74
35848;BME280;22332;51.954;20.118;2023-01-09T09:11:50;98853.60;;;5.96;87.71
35848;BME280;22332;51.954;20.118;2023-01-09T09:14:55;98850.78;;;5.99;87.74
35848;BME280;22332;51.954;20.118;2023-01-09T09:18:26;98855.84;;;5.98;87.59
35848;BME280;22332;51.954;20.118;2023-01-09T09:21:32;98847.45;;;5.95;87.54
35848;BME280;22332;51.954;20.118;2023-01-09T09:24:37;98847.34;;;5.93;87.59
35848;BME280;22332;51.954;20.118;2023-01-09T09:27:43;98849.94;;;5.89;87.50
35848;BME280;22332;51.954;20.118;2023-01-09T09:30:49;98853.39;;;5.90;87.85
35848;BME280;22332;51.954;20.118;2023-01-09T09:33:54;98853.26;;;5.94;87.68
35848;BME280;22332;51.954;20.118;2023-01-09T09:37:00;98849.94;;;5.95;87.63
35848;BME280;22332;51.954;20.118;2023-01-09T09:40:09;98846.23;;;5.95;87.58
35848;BME280;22332;51.954;20.118;2023-01-09T09:47:16;98833.61;;;5.92;87.69
35848;BME280;22332;51.954;20.118;2023-01-09T09:50:39;98829.48;;;5.95;87.94
35848;BME280;22332;51.954;20.118;2023-01-09T09:53:55;98818.67;;;6.02;87.98
35848;BME280;22332;51.954;20.118;2023-01-09T09:57:04;98813.43;;;6.13;88.17
35848;BME280;22332;51.954;20.118;2023-01-09T10:00:17;98809.23;;;6.20;87.87
35848;BME280;22332;51.954;20.118;2023-01-09T10:03:29;98807.28;;;6.25;87.61
35848;BME280;22332;51.954;20.118;2023-01-09T10:06:41;98804.84;;;6.26;87.72
35848;BME280;22332;51.954;20.118;2023-01-09T10:09:50;98809.81;;;6.28;87.73
35848;BME280;22332;51.954;20.118;2023-01-09T10:12:58;98807.88;;;6.24;87.84
35848;BME280;22332;51.954;20.118;2023-01-09T10:16:35;98806.15;;;6.24;87.78
35848;BME280;22332;51.954;20.118;2023-01-09T10:19:58;98800.64;;;6.26;88.06
35848;BME280;22332;51.954;20.118;2023-01-09T10:26:51;98792.25;;;6.40;88.19
35848;BME280;22332;51.954;20.118;2023-01-09T10:30:06;98790.27;;;6.44;88.46
35848;BME280;22332;51.954;20.118;2023-01-09T10:33:25;98779.81;;;6.46;88.10
35848;BME280;22332;51.954;20.118;2023-01-09T10:36:54;98777.50;;;6.48;88.41
35848;BME280;22332;51.954;20.118;2023-01-09T10:40:12;98767.64;;;6.53;88.26
35848;BME280;22332;51.954;20.118;2023-01-09T10:43:28;98760.62;;;6.60;88.61
35848;BME280;22332;51.954;20.118;2023-01-09T10:46:40;98755.16;;;6.69;88.30
35848;BME280;22332;51.954;20.118;2023-01-09T10:49:49;98750.55;;;6.77;88.45
35848;BME280;22332;51.954;20.118;2023-01-09T10:52:56;98738.91;;;6.85;88.44
35848;BME280;22332;51.954;20.118;2023-01-09T10:56:05;98735.70;;;6.87;88.29
35848;BME280;22332;51.954;20.118;2023-01-09T10:59:15;98727.66;;;6.88;88.23
35848;BME280;22332;51.954;20.118;2023-01-09T11:02:26;98724.70;;;6.85;88.26
35848;BME280;22332;51.954;20.118;2023-01-09T11:05:33;98719.77;;;6.87;88.35
35848;BME280;22332;51.954;20.118;2023-01-09T11:08:41;98714.89;;;6.91;88.45
35848;BME280;22332;51.954;20.118;2023-01-09T11:11:49;98710.33;;;6.99;88.60
35848;BME280;22332;51.954;20.118;2023-01-09T11:14:55;98703.21;;;7.06;88.23
35848;BME280;22332;51.954;20.118;2023-01-09T11:18:18;98696.33;;;7.13;88.31
35848;BME280;22332;51.954;20.118;2023-01-09T11:21:31;98694.52;;;7.16;88.50
35848;BME280;22332;51.954;20.118;2023-01-09T11:24:38;98683.89;;;7.16;88.62
35848;BME280;22332;51.954;20.118;2023-01-09T11:27:44;98680.92;;;7.17;88.70
35848;BME280;22332;51.954;20.118;2023-01-09T11:31:08;98673.88;;;7.22;88.87
35848;BME280;22332;51.954;20.118;2023-01-09T11:34:19;98671.13;;;7.24;88.85
35848;BME280;22332;51.954;20.118;2023-01-09T11:37:27;98666.41;;;7.25;88.80
35848;BME280;22332;51.954;20.118;2023-01-09T11:40:43;98666.39;;;7.24;88.94
35848;BME280;22332;51.954;20.118;2023-01-09T11:43:51;98661.24;;;7.24;88.94
35848;BME280;22332;51.954;20.118;2023-01-09T11:46:58;98661.81;;;7.22;89.18
35848;BME280;22332;51.954;20.118;2023-01-09T11:50:17;98659.95;;;7.21;89.08
35848;BME280;22332;51.954;20.118;2023-01-09T11:53:24;98656.43;;;7.23;89.14
35848;BME280;22332;51.954;20.118;2023-01-09T11:56:31;98652.63;;;7.24;89.20
35848;BME280;22332;51.954;20.118;2023-01-09T11:59:36;98652.08;;;7.25;89.20
35848;BME280;22332;51.954;20.118;2023-01-09T12:02:58;98650.77;;;7.26;89.16
35848;BME280;22332;51.954;20.118;2023-01-09T12:06:14;98650.26;;;7.26;89.29
35848;BME280;22332;51.954;20.118;2023-01-09T12:09:32;98648.31;;;7.24;89.21
35848;BME280;22332;51.954;20.118;2023-01-09T12:12:50;98647.27;;;7.24;89.34
35848;BME280;22332;51.954;20.118;2023-01-09T12:16:05;98642.30;;;7.24;89.41
35848;BME280;22332;51.954;20.118;2023-01-09T12:19:27;98641.95;;;7.26;89.40
35848;BME280;22332;51.954;20.118;2023-01-09T12:22:47;98643.80;;;7.28;89.53
35848;BME280;22332;51.954;20.118;2023-01-09T12:26:02;98638.45;;;7.27;89.28
35848;BME280;22332;51.954;20.118;2023-01-09T12:29:38;98633.77;;;7.26;89.63
35848;BME280;22332;51.954;20.118;2023-01-09T12:32:58;98632.56;;;7.24;89.53
35848;BME280;22332;51.954;20.118;2023-01-09T12:36:15;98633.78;;;7.23;89.76
35848;BME280;22332;51.954;20.118;2023-01-09T12:39:29;98634.35;;;7.24;89.95
35848;BME280;22332;51.954;20.118;2023-01-09T12:42:46;98633.67;;;7.27;90.03
35848;BME280;22332;51.954;20.118;2023-01-09T12:46:02;98633.09;;;7.31;89.88
35848;BME280;22332;51.954;20.118;2023-01-09T12:49:25;98632.13;;;7.33;90.12
35848;BME280;22332;51.954;20.118;2023-01-09T12:52:35;98638.42;;;7.34;90.15
35848;BME280;22332;51.954;20.118;2023-01-09T12:55:47;98640.61;;;7.33;90.02
35848;BME280;22332;51.954;20.118;2023-01-09T12:58:57;98637.00;;;7.34;90.19
35848;BME280;22332;51.954;20.118;2023-01-09T13:02:17;98639.28;;;7.37;90.04
35848;BME280;22332;51.954;20.118;2023-01-09T13:05:25;98637.70;;;7.42;89.86
35848;BME280;22332;51.954;20.118;2023-01-09T13:08:37;98632.96;;;7.46;90.14
35848;BME280;22332;51.954;20.118;2023-01-09T13:11:47;98629.50;;;7.48;90.03
35848;BME280;22332;51.954;20.118;2023-01-09T13:14:58;98631.45;;;7.45;90.09
35848;BME280;22332;51.954;20.118;2023-01-09T13:18:10;98632.75;;;7.41;90.05
35848;BME280;22332;51.954;20.118;2023-01-09T13:21:17;98636.08;;;7.40;90.24
35848;BME280;22332;51.954;20.118;2023-01-09T13:24:28;98635.61;;;7.41;90.25
35848;BME280;22332;51.954;20.118;2023-01-09T13:27:35;98631.92;;;7.44;90.25
35848;BME280;22332;51.954;20.118;2023-01-09T13:30:57;98625.46;;;7.46;90.27
35848;BME280;22332;51.954;20.118;2023-01-09T13:34:12;98626.42;;;7.46;90.34
35848;BME280;22332;51.954;20.118;2023-01-09T13:37:23;98626.20;;;7.45;90.25
35848;BME280;22332;51.954;20.118;2023-01-09T13:40:30;98622.46;;;7.43;90.36
35848;BME280;22332;51.954;20.118;2023-01-09T13:43:58;98625.18;;;7.44;90.35
35848;BME280;22332;51.954;20.118;2023-01-09T13:47:12;98622.00;;;7.49;90.52
35848;BME280;22332;51.954;20.118;2023-01-09T13:50:25;98623.44;;;7.54;90.42
35848;BME280;22332;51.954;20.118;2023-01-09T13:53:45;98627.48;;;7.56;90.31
35848;BME280;22332;51.954;20.118;2023-01-09T13:57:17;98627.83;;;7.54;90.52
35848;BME280;22332;51.954;20.118;2023-01-09T14:00:49;98629.36;;;7.53;90.60
35848;BME280;22332;51.954;20.118;2023-01-09T14:07:34;98628.85;;;7.59;90.62
35848;BME280;22332;51.954;20.118;2023-01-09T14:10:48;98631.30;;;7.62;90.80
35848;BME280;22332;51.954;20.118;2023-01-09T14:14:03;98632.55;;;7.64;90.55
35848;BME280;22332;51.954;20.118;2023-01-09T14:17:18;98638.33;;;7.63;90.58
35848;BME280;22332;51.954;20.118;2023-01-09T14:20:33;98645.18;;;7.60;90.69
35848;BME280;22332;51.954;20.118;2023-01-09T14:23:48;98642.36;;;7.58;90.85
35848;BME280;22332;51.954;20.118;2023-01-09T14:26:56;98643.63;;;7.58;90.85
35848;BME280;22332;51.954;20.118;2023-01-09T14:33:37;98655.92;;;7.67;90.96
35848;BME280;22332;51.954;20.118;2023-01-09T14:36:43;98652.25;;;7.67;91.01
35848;BME280;22332;51.954;20.118;2023-01-09T14:39:50;98657.42;;;7.66;90.99
35848;BME280;22332;51.954;20.118;2023-01-09T14:43:01;98660.48;;;7.64;91.03
35848;BME280;22332;51.954;20.118;2023-01-09T14:46:13;98661.24;;;7.65;91.06
35848;BME280;22332;51.954;20.118;2023-01-09T14:49:27;98658.70;;;7.69;91.32
35848;BME280;22332;51.954;20.118;2023-01-09T14:52:38;98660.48;;;7.74;91.33
35848;BME280;22332;51.954;20.118;2023-01-09T14:55:51;98661.31;;;7.77;91.10
35848;BME280;22332;51.954;20.118;2023-01-09T14:59:12;98657.54;;;7.76;91.18
35848;BME280;22332;51.954;20.118;2023-01-09T15:02:17;98660.14;;;7.75;91.29
35848;BME280;22332;51.954;20.118;2023-01-09T15:05:25;98665.64;;;7.77;91.48
35848;BME280;22332;51.954;20.118;2023-01-09T15:08:32;98662.50;;;7.79;91.49
35848;BME280;22332;51.954;20.118;2023-01-09T15:11:39;98665.27;;;7.81;91.48
35848;BME280;22332;51.954;20.118;2023-01-09T15:14:48;98668.30;;;7.81;91.32
35848;BME280;22332;51.954;20.118;2023-01-09T15:17:58;98673.98;;;7.81;91.40
35848;BME280;22332;51.954;20.118;2023-01-09T15:21:04;98676.23;;;7.80;91.34
35848;BME280;22332;51.954;20.118;2023-01-09T15:24:15;98685.02;;;7.80;91.54
35848;BME280;22332;51.954;20.118;2023-01-09T15:27:25;98687.32;;;7.82;91.76
35848;BME280;22332;51.954;20.118;2023-01-09T15:30:32;98687.90;;;7.83;91.73
35848;BME280;22332;51.954;20.118;2023-01-09T15:33:41;98691.35;;;7.85;91.89
35848;BME280;22332;51.954;20.118;2023-01-09T15:36:47;98693.70;;;7.85;91.74
35848;BME280;22332;51.954;20.118;2023-01-09T15:39:56;98694.10;;;7.84;91.82
35848;BME280;22332;51.954;20.118;2023-01-09T15:43:04;98696.65;;;7.85;91.82
35848;BME280;22332;51.954;20.118;2023-01-09T15:46:10;98700.73;;;7.89;92.01
35848;BME280;22332;51.954;20.118;2023-01-09T15:49:16;98699.35;;;7.92;92.03
35848;BME280;22332;51.954;20.118;2023-01-09T15:52:23;98708.07;;;7.93;91.97
35848;BME280;22332;51.954;20.118;2023-01-09T15:55:32;98714.17;;;7.92;92.09
35848;BME280;22332;51.954;20.118;2023-01-09T15:58:40;98718.41;;;7.91;92.15
35848;BME280;22332;51.954;20.118;2023-01-09T16:01:57;98724.64;;;7.92;92.10
35848;BME280;22332;51.954;20.118;2023-01-09T16:05:22;98726.37;;;7.97;92.34
35848;BME280;22332;51.954;20.118;2023-01-09T16:08:30;98733.16;;;7.99;92.32
35848;BME280;22332;51.954;20.118;2023-01-09T16:11:38;98734.36;;;8.00;92.23
35848;BME280;22332;51.954;20.118;2023-01-09T16:14:51;98739.11;;;7.98;92.32
35848;BME280;22332;51.954;20.118;2023-01-09T16:18:20;98745.06;;;7.97;92.22
35848;BME280;22332;51.954;20.118;2023-01-09T16:21:33;98749.32;;;7.98;92.20
35848;BME280;22332;51.954;20.118;2023-01-09T16:24:40;98749.11;;;7.99;92.33
35848;BME280;22332;51.954;20.118;2023-01-09T16:28:13;98754.10;;;8.02;92.12
35848;BME280;22332;51.954;20.118;2023-01-09T16:31:24;98760.27;;;8.04;91.94
35848;BME280;22332;51.954;20.118;2023-01-09T16:34:34;98764.54;;;8.02;92.07
35848;BME280;22332;51.954;20.118;2023-01-09T16:37:40;98760.75;;;8.01;92.17
35848;BME280;22332;51.954;20.118;2023-01-09T16:41:00;98757.27;;;8.01;91.93
35848;BME280;22332;51.954;20.118;2023-01-09T16:44:24;98766.52;;;8.03;92.09
35848;BME280;22332;51.954;20.118;2023-01-09T16:47:30;98763.05;;;8.06;91.96
35848;BME280;22332;51.954;20.118;2023-01-09T16:50:36;98764.34;;;8.05;91.91
35848;BME280;22332;51.954;20.118;2023-01-09T16:53:42;98767.38;;;8.04;91.95
35848;BME280;22332;51.954;20.118;2023-01-09T16:56:50;98758.05;;;8.02;91.99
35848;BME280;22332;51.954;20.118;2023-01-09T16:59:57;98747.91;;;8.01;91.81
35848;BME280;22332;51.954;20.118;2023-01-09T17:03:03;98750.49;;;8.01;91.84